createdAt,value
2018-07-03T00:00:49.742Z,0
2018-07-03T00:01:51.175Z,0
2018-07-03T00:02:49.189Z,0
2018-07-03T00:03:49.912Z,0
2018-07-03T00:04:50.496Z,0
2018-07-03T00:05:50.488Z,0
2018-07-03T00:06:49.445Z,0
2018-07-03T00:07:51.247Z,0
2018-07-03T00:08:49.697Z,0
2018-07-03T00:09:49.687Z,0
2018-07-03T00:10:50.708Z,0
2018-07-03T00:11:51.872Z,0
2018-07-03T00:12:49.630Z,0
2018-07-03T00:13:49.762Z,0
2018-07-03T00:14:49.118Z,0
2018-07-03T00:15:49.058Z,0
2018-07-03T00:16:49.401Z,0
2018-07-03T00:17:49.643Z,0
2018-07-03T00:18:49.695Z,0
2018-07-03T00:19:49.717Z,0
2018-07-03T00:20:49.738Z,0
2018-07-03T00:21:49.761Z,0
2018-07-03T00:22:52.816Z,0
2018-07-03T00:23:49.540Z,0
2018-07-03T00:24:49.838Z,0
2018-07-03T00:25:49.859Z,0
2018-07-03T00:26:49.878Z,0
2018-07-03T00:27:49.904Z,0
2018-07-03T00:28:49.655Z,0
2018-07-03T00:29:49.957Z,0
2018-07-03T00:30:49.704Z,0
2018-07-03T00:31:50.001Z,0
2018-07-03T00:32:50.012Z,0
2018-07-03T00:33:49.800Z,0
2018-07-03T00:34:49.795Z,0
2018-07-03T00:35:50.081Z,0
2018-07-03T00:36:49.844Z,0
2018-07-03T00:37:49.869Z,0
2018-07-03T00:38:50.084Z,0
2018-07-03T00:39:51.024Z,0
2018-07-03T00:40:51.125Z,0
2018-07-03T00:41:50.715Z,0
2018-07-03T00:42:50.739Z,0
2018-07-03T00:43:50.270Z,0
2018-07-03T00:44:50.291Z,0
2018-07-03T00:45:50.054Z,0
2018-07-03T00:46:50.339Z,0
2018-07-03T00:47:50.359Z,0
2018-07-03T00:48:50.388Z,0
2018-07-03T00:49:50.407Z,0
2018-07-03T00:50:50.165Z,0
2018-07-03T00:51:50.445Z,0
2018-07-03T00:52:50.205Z,0
2018-07-03T00:53:50.492Z,0
2018-07-03T00:54:50.253Z,0
2018-07-03T00:55:50.539Z,0
2018-07-03T00:56:50.562Z,0
2018-07-03T00:57:50.331Z,0
2018-07-03T00:58:50.356Z,0
2018-07-03T00:59:50.359Z,0
2018-07-03T01:00:50.665Z,0
2018-07-03T01:01:50.140Z,0
2018-07-03T01:02:49.897Z,0
2018-07-03T01:03:50.722Z,0
2018-07-03T01:04:50.745Z,0
2018-07-03T01:05:50.501Z,0
2018-07-03T01:06:50.523Z,0
2018-07-03T01:07:50.553Z,0
2018-07-03T01:08:50.304Z,0
2018-07-03T01:09:50.861Z,0
2018-07-03T01:10:50.345Z,0
2018-07-03T01:11:50.374Z,0
2018-07-03T01:12:50.934Z,0
2018-07-03T01:13:50.946Z,0
2018-07-03T01:14:50.966Z,0
2018-07-03T01:15:50.988Z,0
2018-07-03T01:16:50.743Z,0
2018-07-03T01:17:50.773Z,0
2018-07-03T01:18:50.790Z,0
2018-07-03T01:19:51.082Z,0
2018-07-03T01:20:50.837Z,0
2018-07-03T01:21:51.127Z,0
2018-07-03T01:22:51.162Z,0
2018-07-03T01:23:50.902Z,0
2018-07-03T01:24:51.186Z,0
2018-07-03T01:25:51.214Z,0
2018-07-03T01:26:51.250Z,0
2018-07-03T01:27:51.260Z,0
2018-07-03T01:28:51.014Z,0
2018-07-03T01:29:51.301Z,0
2018-07-03T01:30:51.111Z,0
2018-07-03T01:31:50.547Z,0
2018-07-03T01:32:50.841Z,0
2018-07-03T01:33:51.395Z,0
2018-07-03T01:34:51.151Z,0
2018-07-03T01:35:51.322Z,0
2018-07-03T01:36:51.194Z,0
2018-07-03T01:37:51.490Z,0
2018-07-03T01:38:51.257Z,0
2018-07-03T01:39:51.524Z,0
2018-07-03T01:40:51.288Z,0
2018-07-03T01:41:51.310Z,0
2018-07-03T01:42:51.325Z,0
2018-07-03T01:43:51.611Z,0
2018-07-03T01:44:51.371Z,0
2018-07-03T01:45:51.656Z,0
2018-07-03T01:46:51.678Z,0
2018-07-03T01:47:51.706Z,0
2018-07-03T01:48:51.725Z,0
2018-07-03T01:49:51.740Z,0
2018-07-03T01:50:51.501Z,0
2018-07-03T01:51:51.545Z,0
2018-07-03T01:52:51.816Z,0
2018-07-03T01:53:51.831Z,0
2018-07-03T01:54:51.588Z,0
2018-07-03T01:55:51.878Z,0
2018-07-03T01:56:51.905Z,0
2018-07-03T01:57:51.930Z,0
2018-07-03T01:58:51.684Z,0
2018-07-03T01:59:51.438Z,0
2018-07-03T02:00:51.985Z,0
2018-07-03T02:01:52.017Z,0
2018-07-03T02:02:52.035Z,0
2018-07-03T02:03:52.054Z,0
2018-07-03T02:04:51.807Z,0
2018-07-03T02:05:51.838Z,0
2018-07-03T02:06:51.587Z,0
2018-07-03T02:07:51.886Z,0
2018-07-03T02:08:52.164Z,0
2018-07-03T02:09:52.186Z,0
2018-07-03T02:10:51.681Z,0
2018-07-03T02:11:51.975Z,0
2018-07-03T02:12:51.726Z,0
2018-07-03T02:13:52.015Z,0
2018-07-03T02:14:51.760Z,0
2018-07-03T02:15:52.050Z,0
2018-07-03T02:16:52.069Z,0
2018-07-03T02:17:51.843Z,0
2018-07-03T02:18:52.143Z,0
2018-07-03T02:19:52.414Z,0
2018-07-03T02:20:52.161Z,0
2018-07-03T02:21:52.205Z,0
2018-07-03T02:22:52.477Z,0
2018-07-03T02:23:52.252Z,0
2018-07-03T02:24:52.542Z,0
2018-07-03T02:25:52.536Z,0
2018-07-03T02:26:52.560Z,0
2018-07-03T02:27:52.576Z,0
2018-07-03T02:28:52.607Z,0
2018-07-03T02:29:52.625Z,0
2018-07-03T02:30:52.389Z,0
2018-07-03T02:31:52.672Z,0
2018-07-03T02:32:52.156Z,0
2018-07-03T02:33:52.446Z,0
2018-07-03T02:34:52.737Z,4
2018-07-03T02:35:52.778Z,4
2018-07-03T02:36:52.774Z,4
2018-07-03T02:37:52.810Z,0
2018-07-03T02:38:52.822Z,0
2018-07-03T02:39:52.844Z,4
2018-07-03T02:40:52.862Z,4
2018-07-03T02:41:52.619Z,4
2018-07-03T02:42:52.910Z,4
2018-07-03T02:43:52.938Z,4
2018-07-03T02:44:52.959Z,4
2018-07-03T02:45:52.969Z,8
2018-07-03T02:46:52.729Z,4
2018-07-03T02:47:52.779Z,8
2018-07-03T02:48:53.038Z,12
2018-07-03T02:49:52.829Z,8
2018-07-03T02:50:53.137Z,12
2018-07-03T02:51:53.102Z,12
2018-07-03T02:52:53.120Z,12
2018-07-03T02:53:52.872Z,12
2018-07-03T02:54:53.165Z,16
2018-07-03T02:55:53.188Z,16
2018-07-03T02:56:52.937Z,16
2018-07-03T02:57:52.696Z,20
2018-07-03T02:58:53.241Z,20
2018-07-03T02:59:53.002Z,20
2018-07-03T03:00:53.029Z,24
2018-07-03T03:01:53.044Z,24
2018-07-03T03:02:53.328Z,28
2018-07-03T03:03:53.357Z,28
2018-07-03T03:04:53.371Z,28
2018-07-03T03:05:53.403Z,36
2018-07-03T03:06:53.421Z,36
2018-07-03T03:07:53.450Z,36
2018-07-03T03:08:53.459Z,40
2018-07-03T03:09:53.212Z,44
2018-07-03T03:10:53.501Z,44
2018-07-03T03:11:53.540Z,44
2018-07-03T03:12:53.547Z,52
2018-07-03T03:13:53.296Z,52
2018-07-03T03:14:53.592Z,52
2018-07-03T03:15:53.350Z,56
2018-07-03T03:16:53.098Z,60
2018-07-03T03:17:53.394Z,60
2018-07-03T03:18:53.412Z,64
2018-07-03T03:19:53.428Z,64
2018-07-03T03:20:53.721Z,68
2018-07-03T03:21:53.741Z,72
2018-07-03T03:22:53.788Z,72
2018-07-03T03:23:53.626Z,76
2018-07-03T03:24:53.806Z,80
2018-07-03T03:25:53.828Z,80
2018-07-03T03:26:53.850Z,84
2018-07-03T03:27:53.597Z,88
2018-07-03T03:28:53.892Z,88
2018-07-03T03:29:53.900Z,92
2018-07-03T03:30:53.943Z,96
2018-07-03T03:31:53.469Z,96
2018-07-03T03:32:53.703Z,100
2018-07-03T03:33:53.988Z,100
2018-07-03T03:34:53.747Z,104
2018-07-03T03:35:54.035Z,108
2018-07-03T03:36:53.522Z,108
2018-07-03T03:37:53.806Z,112
2018-07-03T03:38:54.107Z,112
2018-07-03T03:39:53.851Z,116
2018-07-03T03:40:53.879Z,116
2018-07-03T03:41:54.166Z,124
2018-07-03T03:42:53.908Z,124
2018-07-03T03:43:54.205Z,128
2018-07-03T03:44:54.225Z,128
2018-07-03T03:45:53.981Z,132
2018-07-03T03:46:53.998Z,132
2018-07-03T03:47:53.755Z,136
2018-07-03T03:48:54.316Z,136
2018-07-03T03:49:54.338Z,140
2018-07-03T03:50:54.087Z,140
2018-07-03T03:51:54.204Z,140
2018-07-03T03:52:54.390Z,140
2018-07-03T03:53:54.503Z,144
2018-07-03T03:54:54.439Z,148
2018-07-03T03:55:54.463Z,148
2018-07-03T03:56:54.219Z,148
2018-07-03T03:57:54.491Z,152
2018-07-03T03:58:54.254Z,152
2018-07-03T03:59:54.532Z,152
2018-07-03T04:00:54.817Z,156
2018-07-03T04:01:53.783Z,156
2018-07-03T04:02:54.605Z,160
2018-07-03T04:03:54.642Z,160
2018-07-03T04:04:54.643Z,160
2018-07-03T04:05:54.129Z,164
2018-07-03T04:06:54.691Z,164
2018-07-03T04:07:54.177Z,164
2018-07-03T04:08:54.191Z,168
2018-07-03T04:09:54.753Z,168
2018-07-03T04:10:54.508Z,172
2018-07-03T04:11:54.261Z,168
2018-07-03T04:12:54.817Z,172
2018-07-03T04:13:54.834Z,172
2018-07-03T04:14:54.849Z,176
2018-07-03T04:15:54.603Z,172
2018-07-03T04:16:54.632Z,176
2018-07-03T04:17:54.655Z,176
2018-07-03T04:18:54.959Z,180
2018-07-03T04:19:54.428Z,180
2018-07-03T04:20:54.979Z,180
2018-07-03T04:21:54.733Z,184
2018-07-03T04:22:55.019Z,184
2018-07-03T04:23:55.047Z,188
2018-07-03T04:24:54.796Z,184
2018-07-03T04:25:54.814Z,188
2018-07-03T04:26:55.109Z,188
2018-07-03T04:27:54.855Z,188
2018-07-03T04:28:54.877Z,188
2018-07-03T04:29:55.165Z,192
2018-07-03T04:30:55.189Z,192
2018-07-03T04:31:54.939Z,192
2018-07-03T04:32:54.962Z,196
2018-07-03T04:33:54.982Z,196
2018-07-03T04:34:55.000Z,196
2018-07-03T04:35:55.023Z,200
2018-07-03T04:36:55.046Z,196
2018-07-03T04:37:55.071Z,200
2018-07-03T04:38:54.818Z,204
2018-07-03T04:39:55.372Z,200
2018-07-03T04:40:54.868Z,204
2018-07-03T04:41:55.415Z,204
2018-07-03T04:42:55.169Z,208
2018-07-03T04:43:54.932Z,208
2018-07-03T04:44:54.680Z,204
2018-07-03T04:45:55.502Z,208
2018-07-03T04:46:55.736Z,208
2018-07-03T04:47:55.281Z,212
2018-07-03T04:48:55.288Z,208
2018-07-03T04:49:55.308Z,212
2018-07-03T04:50:55.611Z,212
2018-07-03T04:51:55.632Z,216
2018-07-03T04:52:55.638Z,212
2018-07-03T04:53:54.869Z,216
2018-07-03T04:54:55.683Z,216
2018-07-03T04:55:55.171Z,216
2018-07-03T04:56:55.193Z,216
2018-07-03T04:57:55.852Z,216
2018-07-03T04:58:55.537Z,216
2018-07-03T04:59:55.528Z,220
2018-07-03T05:00:55.543Z,220
2018-07-03T05:01:55.560Z,224
2018-07-03T05:02:55.579Z,220
2018-07-03T05:03:55.607Z,220
2018-07-03T05:04:55.370Z,224
2018-07-03T05:05:55.377Z,224
2018-07-03T05:06:55.937Z,224
2018-07-03T05:07:55.691Z,224
2018-07-03T05:08:55.974Z,224
2018-07-03T05:09:55.732Z,224
2018-07-03T05:10:56.015Z,228
2018-07-03T05:11:55.778Z,228
2018-07-03T05:12:55.838Z,228
2018-07-03T05:13:56.073Z,228
2018-07-03T05:14:55.839Z,228
2018-07-03T05:15:55.589Z,228
2018-07-03T05:16:56.147Z,232
2018-07-03T05:17:55.892Z,232
2018-07-03T05:18:56.186Z,232
2018-07-03T05:19:56.217Z,232
2018-07-03T05:20:55.955Z,232
2018-07-03T05:21:56.251Z,236
2018-07-03T05:22:55.991Z,236
2018-07-03T05:23:56.041Z,236
2018-07-03T05:24:56.305Z,236
2018-07-03T05:25:56.327Z,236
2018-07-03T05:26:56.080Z,240
2018-07-03T05:27:55.838Z,236
2018-07-03T05:28:56.382Z,236
2018-07-03T05:29:56.411Z,240
2018-07-03T05:30:56.458Z,240
2018-07-03T05:31:56.461Z,240
2018-07-03T05:32:56.207Z,244
2018-07-03T05:33:56.536Z,240
2018-07-03T05:34:56.241Z,244
2018-07-03T05:35:56.268Z,244
2018-07-03T05:36:56.284Z,244
2018-07-03T05:37:56.584Z,244
2018-07-03T05:38:56.588Z,244
2018-07-03T05:39:56.663Z,248
2018-07-03T05:40:56.634Z,244
2018-07-03T05:41:56.656Z,248
2018-07-03T05:42:56.972Z,248
2018-07-03T05:43:56.442Z,252
2018-07-03T05:44:56.720Z,248
2018-07-03T05:45:55.938Z,252
2018-07-03T05:46:56.487Z,252
2018-07-03T05:47:56.515Z,252
2018-07-03T05:48:55.995Z,252
2018-07-03T05:49:56.816Z,252
2018-07-03T05:50:56.578Z,252
2018-07-03T05:51:56.859Z,252
2018-07-03T05:52:56.883Z,252
2018-07-03T05:53:56.908Z,256
2018-07-03T05:54:56.922Z,252
2018-07-03T05:55:56.950Z,256
2018-07-03T05:56:56.966Z,256
2018-07-03T05:57:56.719Z,256
2018-07-03T05:58:57.145Z,256
2018-07-03T05:59:57.037Z,260
2018-07-03T06:00:56.776Z,256
2018-07-03T06:01:57.069Z,260
2018-07-03T06:02:57.196Z,260
2018-07-03T06:03:57.133Z,264
2018-07-03T06:04:57.180Z,264
2018-07-03T06:05:56.882Z,260
2018-07-03T06:06:57.183Z,264
2018-07-03T06:07:57.189Z,264
2018-07-03T06:08:57.209Z,264
2018-07-03T06:09:57.237Z,264
2018-07-03T06:10:57.255Z,264
2018-07-03T06:11:57.012Z,268
2018-07-03T06:12:57.417Z,268
2018-07-03T06:13:57.058Z,268
2018-07-03T06:14:57.339Z,268
2018-07-03T06:15:56.821Z,268
2018-07-03T06:16:57.402Z,268
2018-07-03T06:17:57.397Z,272
2018-07-03T06:18:57.417Z,272
2018-07-03T06:19:56.637Z,268
2018-07-03T06:20:57.195Z,272
2018-07-03T06:21:57.486Z,272
2018-07-03T06:22:57.327Z,276
2018-07-03T06:23:57.272Z,272
2018-07-03T06:24:57.007Z,276
2018-07-03T06:25:57.573Z,276
2018-07-03T06:26:57.587Z,276
2018-07-03T06:27:57.346Z,276
2018-07-03T06:28:57.697Z,280
2018-07-03T06:29:57.394Z,280
2018-07-03T06:30:57.492Z,280
2018-07-03T06:31:57.414Z,280
2018-07-03T06:32:57.711Z,280
2018-07-03T06:33:57.737Z,280
2018-07-03T06:34:57.792Z,284
2018-07-03T06:35:57.784Z,280
2018-07-03T06:36:57.910Z,284
2018-07-03T06:37:57.817Z,284
2018-07-03T06:38:57.854Z,284
2018-07-03T06:39:57.856Z,288
2018-07-03T06:40:57.884Z,284
2018-07-03T06:41:57.892Z,288
2018-07-03T06:42:57.657Z,288
2018-07-03T06:43:57.670Z,288
2018-07-03T06:44:57.914Z,288
2018-07-03T06:45:57.976Z,288
2018-07-03T06:46:57.476Z,288
2018-07-03T06:47:58.022Z,292
2018-07-03T06:48:57.868Z,292
2018-07-03T06:49:58.074Z,292
2018-07-03T06:50:57.811Z,292
2018-07-03T06:51:57.910Z,296
2018-07-03T06:52:58.041Z,296
2018-07-03T06:53:58.144Z,296
2018-07-03T06:54:58.171Z,296
2018-07-03T06:55:57.383Z,296
2018-07-03T06:56:57.671Z,300
2018-07-03T06:57:58.626Z,300
2018-07-03T06:58:58.244Z,300
2018-07-03T06:59:58.280Z,300
2018-07-03T07:00:58.015Z,300
2018-07-03T07:01:58.041Z,304
2018-07-03T07:02:58.338Z,304
2018-07-03T07:03:58.096Z,304
2018-07-03T07:04:58.103Z,304
2018-07-03T07:05:58.142Z,304
2018-07-03T07:06:57.891Z,304
2018-07-03T07:07:58.167Z,304
2018-07-03T07:08:58.171Z,308
2018-07-03T07:09:58.219Z,308
2018-07-03T07:10:57.970Z,308
2018-07-03T07:11:58.521Z,308
2018-07-03T07:12:58.546Z,308
2018-07-03T07:13:58.026Z,308
2018-07-03T07:14:58.690Z,312
2018-07-03T07:15:58.621Z,308
2018-07-03T07:16:58.621Z,312
2018-07-03T07:17:58.384Z,312
2018-07-03T07:18:58.764Z,312
2018-07-03T07:19:58.422Z,316
2018-07-03T07:20:58.716Z,316
2018-07-03T07:21:58.752Z,316
2018-07-03T07:22:58.749Z,320
2018-07-03T07:23:58.774Z,320
2018-07-03T07:24:58.793Z,324
2018-07-03T07:25:58.546Z,328
2018-07-03T07:26:58.298Z,332
2018-07-03T07:27:58.878Z,332
2018-07-03T07:28:58.612Z,336
2018-07-03T07:29:58.918Z,340
2018-07-03T07:30:58.652Z,340
2018-07-03T07:31:58.941Z,348
2018-07-03T07:32:58.965Z,348
2018-07-03T07:33:58.738Z,348
2018-07-03T07:34:59.002Z,356
2018-07-03T07:35:58.868Z,356
2018-07-03T07:36:59.046Z,360
2018-07-03T07:37:58.802Z,364
2018-07-03T07:38:58.821Z,364
2018-07-03T07:39:58.597Z,372
2018-07-03T07:40:59.129Z,372
2018-07-03T07:41:58.885Z,380
2018-07-03T07:42:59.181Z,380
2018-07-03T07:43:59.193Z,384
2018-07-03T07:44:59.224Z,384
2018-07-03T07:45:59.234Z,392
2018-07-03T07:46:58.737Z,396
2018-07-03T07:47:59.390Z,396
2018-07-03T07:48:59.302Z,400
2018-07-03T07:49:59.050Z,404
2018-07-03T07:50:58.817Z,408
2018-07-03T07:51:59.364Z,412
2018-07-03T07:52:59.131Z,420
2018-07-03T07:53:59.138Z,424
2018-07-03T07:54:59.611Z,428
2018-07-03T07:55:59.189Z,432
2018-07-03T07:56:59.211Z,432
2018-07-03T07:57:59.232Z,440
2018-07-03T07:58:59.523Z,444
2018-07-03T07:59:59.540Z,452
2018-07-03T08:00:59.567Z,452
2018-07-03T08:01:59.343Z,456
2018-07-03T08:02:59.629Z,460
2018-07-03T08:03:59.364Z,468
2018-07-03T08:04:59.646Z,472
2018-07-03T08:05:58.884Z,476
2018-07-03T08:06:59.435Z,480
2018-07-03T08:07:59.728Z,488
2018-07-03T08:08:59.735Z,492
2018-07-03T08:09:59.489Z,496
2018-07-03T08:10:59.782Z,504
2018-07-03T08:11:59.804Z,512
2018-07-03T08:12:59.832Z,516
2018-07-03T08:13:59.955Z,520
2018-07-03T08:14:59.878Z,528
2018-07-03T08:15:59.353Z,536
2018-07-03T08:16:59.904Z,544
2018-07-03T08:17:59.963Z,556
2018-07-03T08:18:59.960Z,568
2018-07-03T08:19:59.724Z,584
2018-07-03T08:20:59.999Z,592
2018-07-03T08:21:59.500Z,624
2018-07-03T08:22:59.788Z,624
2018-07-03T08:24:00.108Z,652
2018-07-03T08:24:59.834Z,644
2018-07-03T08:26:00.122Z,636
2018-07-03T08:26:59.616Z,632
2018-07-03T08:27:59.905Z,632
2018-07-03T08:29:00.160Z,636
2018-07-03T08:29:59.661Z,640
2018-07-03T08:30:59.562Z,648
2018-07-03T08:32:00.278Z,676
2018-07-03T08:32:59.515Z,696
2018-07-03T08:34:00.078Z,620
2018-07-03T08:35:00.274Z,672
2018-07-03T08:36:00.572Z,664
2018-07-03T08:37:00.326Z,656
2018-07-03T08:38:00.093Z,656
2018-07-03T08:39:00.154Z,668
2018-07-03T08:40:00.245Z,676
2018-07-03T08:41:00.711Z,688
2018-07-03T08:42:00.173Z,692
2018-07-03T08:43:00.896Z,704
2018-07-03T08:44:00.205Z,708
2018-07-03T08:45:00.601Z,716
2018-07-03T08:46:00.592Z,724
2018-07-03T08:47:00.605Z,732
2018-07-03T08:48:00.865Z,740
2018-07-03T08:49:00.624Z,748
2018-07-03T08:50:00.689Z,756
2018-07-03T08:51:00.850Z,768
2018-07-03T08:52:00.527Z,776
2018-07-03T08:53:00.754Z,784
2018-07-03T08:54:00.783Z,796
2018-07-03T08:55:00.878Z,800
2018-07-03T08:56:00.018Z,800
2018-07-03T08:57:00.845Z,808
2018-07-03T08:58:00.329Z,804
2018-07-03T08:59:00.348Z,808
2018-07-03T09:00:00.917Z,816
2018-07-03T09:01:01.179Z,824
2018-07-03T09:02:00.982Z,832
2018-07-03T09:03:00.985Z,840
2018-07-03T09:04:01.096Z,844
2018-07-03T09:05:01.022Z,848
2018-07-03T09:06:00.800Z,856
2018-07-03T09:07:01.073Z,864
2018-07-03T09:08:00.836Z,868
2018-07-03T09:09:00.857Z,872
2018-07-03T09:10:00.885Z,876
2018-07-03T09:11:01.186Z,876
2018-07-03T09:12:01.205Z,884
2018-07-03T09:13:01.218Z,884
2018-07-03T09:14:01.251Z,892
2018-07-03T09:15:01.332Z,896
2018-07-03T09:16:01.301Z,904
2018-07-03T09:17:01.058Z,912
2018-07-03T09:18:01.905Z,916
2018-07-03T09:19:01.104Z,920
2018-07-03T09:20:00.862Z,928
2018-07-03T09:21:01.417Z,936
2018-07-03T09:22:00.961Z,944
2018-07-03T09:23:01.466Z,952
2018-07-03T09:24:01.498Z,960
2018-07-03T09:25:01.515Z,964
2018-07-03T09:26:01.287Z,968
2018-07-03T09:27:01.569Z,976
2018-07-03T09:28:01.334Z,984
2018-07-03T09:29:01.626Z,992
2018-07-03T09:30:01.113Z,1004
2018-07-03T09:31:01.664Z,1012
2018-07-03T09:32:01.701Z,1020
2018-07-03T09:33:01.453Z,1028
2018-07-03T09:34:01.486Z,1036
2018-07-03T09:35:01.779Z,1040
2018-07-03T09:36:01.549Z,1048
2018-07-03T09:37:01.825Z,1056
2018-07-03T09:38:01.589Z,1064
2018-07-03T09:39:01.885Z,1072
2018-07-03T09:40:01.900Z,1080
2018-07-03T09:41:01.921Z,1088
2018-07-03T09:42:01.965Z,1096
2018-07-03T09:43:01.983Z,1104
2018-07-03T09:44:01.477Z,1112
2018-07-03T09:45:01.500Z,1116
2018-07-03T09:46:01.790Z,1124
2018-07-03T09:47:02.090Z,1132
2018-07-03T09:48:01.839Z,1140
2018-07-03T09:49:02.307Z,1144
2018-07-03T09:50:01.903Z,1148
2018-07-03T09:51:01.928Z,1160
2018-07-03T09:52:01.806Z,1172
2018-07-03T09:53:02.245Z,1184
2018-07-03T09:54:02.009Z,1188
2018-07-03T09:55:02.406Z,1196
2018-07-03T09:56:02.614Z,1212
2018-07-03T09:57:02.649Z,1220
2018-07-03T09:58:02.690Z,1224
2018-07-03T09:59:01.767Z,1236
2018-07-03T10:00:01.925Z,1240
2018-07-03T10:01:02.549Z,1252
2018-07-03T10:02:01.702Z,1260
2018-07-03T10:03:02.510Z,1268
2018-07-03T10:04:02.036Z,1280
2018-07-03T10:05:02.315Z,1288
2018-07-03T10:06:02.597Z,1300
2018-07-03T10:07:02.627Z,1308
2018-07-03T10:08:02.388Z,1316
2018-07-03T10:09:02.663Z,1324
2018-07-03T10:10:02.429Z,1328
2018-07-03T10:11:02.734Z,1340
2018-07-03T10:12:02.495Z,1348
2018-07-03T10:13:02.984Z,1356
2018-07-03T10:14:02.284Z,1368
2018-07-03T10:15:02.573Z,1380
2018-07-03T10:16:02.937Z,1396
2018-07-03T10:17:02.906Z,1400
2018-07-03T10:18:02.685Z,1404
2018-07-03T10:19:03.192Z,1416
2018-07-03T10:20:02.716Z,1432
2018-07-03T10:21:02.748Z,1444
2018-07-03T10:22:03.046Z,1456
2018-07-03T10:23:02.816Z,1468
2018-07-03T10:24:03.090Z,1480
2018-07-03T10:25:03.113Z,1496
2018-07-03T10:26:03.154Z,1504
2018-07-03T10:27:02.661Z,1512
2018-07-03T10:28:02.698Z,1524
2018-07-03T10:29:02.699Z,1528
2018-07-03T10:30:02.773Z,1536
2018-07-03T10:31:03.093Z,1548
2018-07-03T10:32:03.071Z,1560
2018-07-03T10:33:03.121Z,1576
2018-07-03T10:34:02.869Z,1596
2018-07-03T10:35:02.889Z,1612
2018-07-03T10:36:02.978Z,1624
2018-07-03T10:37:02.931Z,1640
2018-07-03T10:38:03.503Z,1652
2018-07-03T10:39:03.518Z,1668
2018-07-03T10:40:03.316Z,1680
2018-07-03T10:41:03.489Z,1684
2018-07-03T10:42:03.616Z,1688
2018-07-03T10:43:03.400Z,1704
2018-07-03T10:44:03.140Z,1716
2018-07-03T10:45:03.427Z,1728
2018-07-03T10:46:03.803Z,1736
2018-07-03T10:47:03.772Z,1740
2018-07-03T10:48:03.518Z,1752
2018-07-03T10:49:03.560Z,1772
2018-07-03T10:50:03.851Z,1776
2018-07-03T10:51:03.598Z,1792
2018-07-03T10:52:03.639Z,1804
2018-07-03T10:53:03.922Z,1812
2018-07-03T10:54:04.087Z,1824
2018-07-03T10:55:03.995Z,1836
2018-07-03T10:56:03.522Z,1848
2018-07-03T10:57:03.833Z,1860
2018-07-03T10:58:03.676Z,1868
2018-07-03T10:59:03.346Z,1880
2018-07-03T11:00:03.897Z,1892
2018-07-03T11:01:03.405Z,1908
2018-07-03T11:02:04.205Z,1916
2018-07-03T11:03:04.183Z,1932
2018-07-03T11:04:04.040Z,1956
2018-07-03T11:05:03.595Z,1972
2018-07-03T11:06:04.062Z,1988
2018-07-03T11:07:03.566Z,1996
2018-07-03T11:08:03.915Z,2004
2018-07-03T11:09:03.907Z,2016
2018-07-03T11:10:04.208Z,2040
2018-07-03T11:11:04.482Z,2048
2018-07-03T11:12:04.571Z,2064
2018-07-03T11:13:04.022Z,2084
2018-07-03T11:14:04.299Z,2096
2018-07-03T11:15:04.107Z,2108
2018-07-03T11:16:03.878Z,2116
2018-07-03T11:17:04.216Z,2132
2018-07-03T11:18:03.983Z,2108
2018-07-03T11:19:03.969Z,2168
2018-07-03T11:20:04.875Z,2196
2018-07-03T11:21:04.316Z,2248
2018-07-03T11:22:04.064Z,2280
2018-07-03T11:23:04.157Z,2256
2018-07-03T11:24:04.670Z,2264
2018-07-03T11:25:04.683Z,2280
2018-07-03T11:26:04.781Z,2296
2018-07-03T11:27:04.503Z,2316
2018-07-03T11:28:04.747Z,2328
2018-07-03T11:29:04.355Z,2344
2018-07-03T11:30:04.631Z,2356
2018-07-03T11:31:04.876Z,2376
2018-07-03T11:32:04.658Z,2400
2018-07-03T11:33:04.427Z,2424
2018-07-03T11:34:04.662Z,2448
2018-07-03T11:35:04.967Z,2468
2018-07-03T11:36:04.481Z,2484
2018-07-03T11:37:04.844Z,2504
2018-07-03T11:38:05.061Z,2524
2018-07-03T11:39:04.863Z,2552
2018-07-03T11:40:04.928Z,2580
2018-07-03T11:41:04.940Z,2604
2018-07-03T11:42:04.684Z,2632
2018-07-03T11:43:05.145Z,2652
2018-07-03T11:44:05.053Z,2672
2018-07-03T11:45:04.869Z,2700
2018-07-03T11:46:05.127Z,2728
2018-07-03T11:47:06.921Z,2752
2018-07-03T11:48:05.143Z,2772
2018-07-03T11:49:05.417Z,2796
2018-07-03T11:50:05.827Z,2828
2018-07-03T11:51:05.533Z,2844
2018-07-03T11:52:05.532Z,2872
2018-07-03T11:53:05.566Z,2892
2018-07-03T11:54:05.330Z,2912
2018-07-03T11:55:05.623Z,2928
2018-07-03T11:56:05.680Z,2948
2018-07-03T11:57:05.734Z,2972
2018-07-03T11:58:05.733Z,2980
2018-07-03T11:59:05.744Z,3000
2018-07-03T12:00:06.061Z,3016
2018-07-03T12:01:06.072Z,3040
2018-07-03T12:02:05.583Z,3068
2018-07-03T12:03:05.876Z,3096
2018-07-03T12:04:05.908Z,3120
2018-07-03T12:05:06.215Z,3144
2018-07-03T12:06:06.248Z,3160
2018-07-03T12:07:06.012Z,3176
2018-07-03T12:08:06.305Z,3204
2018-07-03T12:09:06.342Z,3220
2018-07-03T12:10:06.115Z,3240
2018-07-03T12:11:06.172Z,3268
2018-07-03T12:12:06.441Z,3280
2018-07-03T12:13:06.468Z,3312
2018-07-03T12:14:06.243Z,3336
2018-07-03T12:15:06.089Z,3320
2018-07-03T12:16:06.589Z,3356
2018-07-03T12:17:06.076Z,3388
2018-07-03T12:18:05.847Z,3396
2018-07-03T12:19:06.405Z,3396
2018-07-03T12:20:06.184Z,3428
2018-07-03T12:21:06.475Z,3468
2018-07-03T12:22:06.253Z,3496
2018-07-03T12:23:06.941Z,3500
2018-07-03T12:24:06.577Z,3512
2018-07-03T12:25:06.357Z,3528
2018-07-03T12:26:06.915Z,3536
2018-07-03T12:27:06.683Z,3552
2018-07-03T12:28:06.714Z,3568
2018-07-03T12:29:06.667Z,3584
2018-07-03T12:30:06.806Z,3608
2018-07-03T12:31:06.826Z,3624
2018-07-03T12:32:06.859Z,3640
2018-07-03T12:33:06.619Z,3644
2018-07-03T12:34:06.923Z,3676
2018-07-03T12:35:07.222Z,3692
2018-07-03T12:36:06.998Z,3724
2018-07-03T12:37:06.494Z,3736
2018-07-03T12:38:07.099Z,3740
2018-07-03T12:39:07.108Z,3756
2018-07-03T12:40:07.131Z,3768
2018-07-03T12:41:06.894Z,3788
2018-07-03T12:42:07.200Z,3804
2018-07-03T12:43:07.233Z,3812
2018-07-03T12:44:07.346Z,3820
2018-07-03T12:45:07.565Z,3840
2018-07-03T12:46:07.364Z,3848
2018-07-03T12:47:07.644Z,3856
2018-07-03T12:48:07.675Z,3864
2018-07-03T12:49:07.721Z,3872
2018-07-03T12:50:07.765Z,3872
2018-07-03T12:51:07.242Z,3888
2018-07-03T12:52:07.821Z,3892
2018-07-03T12:53:07.315Z,3900
2018-07-03T12:54:07.930Z,3908
2018-07-03T12:55:07.653Z,3920
2018-07-03T12:56:07.485Z,3928
2018-07-03T12:57:07.728Z,3936
2018-07-03T12:58:07.902Z,3956
2018-07-03T12:59:07.526Z,3968
2018-07-03T13:00:07.838Z,3984
2018-07-03T13:01:07.335Z,3996
2018-07-03T13:02:07.916Z,4016
2018-07-03T13:03:07.949Z,4040
2018-07-03T13:04:07.988Z,4080
2018-07-03T13:05:08.544Z,4108
2018-07-03T13:06:07.799Z,4136
2018-07-03T13:07:08.092Z,4168
2018-07-03T13:08:08.554Z,4208
2018-07-03T13:09:08.150Z,4248
2018-07-03T13:10:08.195Z,4288
2018-07-03T13:11:07.957Z,4336
2018-07-03T13:12:08.267Z,4392
2018-07-03T13:13:08.306Z,4440
2018-07-03T13:14:08.089Z,4476
2018-07-03T13:15:08.666Z,4528
2018-07-03T13:16:08.155Z,4572
2018-07-03T13:17:08.174Z,4608
2018-07-03T13:18:08.852Z,4632
2018-07-03T13:19:08.245Z,4668
2018-07-03T13:20:08.312Z,4700
2018-07-03T13:21:08.351Z,4744
2018-07-03T13:22:08.354Z,4788
2018-07-03T13:23:08.695Z,4836
2018-07-03T13:24:08.690Z,4856
2018-07-03T13:25:08.468Z,4912
2018-07-03T13:26:08.229Z,4936
2018-07-03T13:27:08.811Z,4976
2018-07-03T13:28:08.355Z,5004
2018-07-03T13:29:09.148Z,5004
2018-07-03T13:30:08.695Z,5024
2018-07-03T13:31:08.687Z,5068
2018-07-03T13:32:08.752Z,5092
2018-07-03T13:33:08.749Z,5116
2018-07-03T13:34:09.323Z,5144
2018-07-03T13:35:09.093Z,5164
2018-07-03T13:36:08.882Z,5172
2018-07-03T13:37:09.310Z,5200
2018-07-03T13:38:09.205Z,5220
2018-07-03T13:39:08.704Z,5268
2018-07-03T13:40:08.741Z,5300
2018-07-03T13:41:09.315Z,5312
2018-07-03T13:42:09.549Z,5344
2018-07-03T13:43:09.142Z,5384
2018-07-03T13:44:09.427Z,5404
2018-07-03T13:45:09.470Z,5424
2018-07-03T13:46:09.501Z,5444
2018-07-03T13:47:09.271Z,5456
2018-07-03T13:48:10.099Z,5488
2018-07-03T13:49:09.821Z,5524
2018-07-03T13:50:09.382Z,5536
2018-07-03T13:51:09.680Z,5548